April 6, 2019
|
Southwest Baptist - Bolivar, MO

Men's 800 Meters

Top↑
PL NAME YEAR TEAM TIME TIME TIME TIME TIME TIME TIME SC
1 Colin Webber SO-2 Pittsburg St. 1:52.51 2:21.77 1:40.14 1:35.64 1:59.26 2:25.14 1:48.01 10
2 Alex Staples JR-3 Missouri S&T 1:52.86 2:10.92 2:19.95 1:26.91 1:43.84 2:21.08 1:22.39 8
3 Abdelrahim Mahgoub FR-1 NW Missouri 1:54.02 2:16.83 1:50.60 2:00.87 2:03.15 1:38.06 2:24.81 6
4 Matt Christoffer SO-2 Southwest Baptist 1:55.34 2:16.11 1:55.34 2:29.95 1:23.05 2:18.41 1:25.36 5
5 Will O'Keefe SO-2 Southwest Baptist 1:55.79 1:50.00 1:44.22 1:37.27 1:40.74 2:15.48 1:38.43 4
6 Alex Goertz SR-4 MidAmerica Nazarene 1:55.88 1:32.71 1:47.77 2:15.58 1:55.88 1:22.28 1:38.50 3
7 Jonathan Dasal SO-2 Evangel 1:55.92 2:27.22 2:17.95 1:55.92 2:01.72 2:30.70 1:45.49 2
8 Matt Moler FR-1 Drury 1:56.00 1:21.20 2:01.80 2:20.36 1:25.84 2:22.68 1:33.96 1
9 Jacob Weber JR-3 Central Missouri 1:56.14 1:49.18 1:43.37 1:53.82 2:13.56 2:30.99 2:00.79 -
10 Nicholas Rotich SR-4 Park U. 1:56.48 1:54.15 1:56.48 2:01.14 1:47.17 1:39.01 2:01.14 -
11 Marshall Vaccaro SO-2 Missouri S&T 1:56.80 1:33.44 2:19.00 1:31.11 1:47.46 1:24.10 2:08.48 -
12 Derek Nugent SO-2 Central Missouri 1:57.84 2:20.23 1:23.67 2:09.63 1:57.84 1:46.06 2:32.02 -
13 Kingdon Hawes FR-1 NW Missouri 1:58.21 2:33.68 1:36.94 1:54.67 2:01.76 1:53.49 1:32.21 -
14 Colby Sutton JR-3 Southwest Baptist 1:58.85 2:30.94 1:37.46 2:13.12 2:00.04 1:26.76 2:25.00 -
15 Collin Welch SO-2 NW Missouri 1:59.40 1:54.63 2:00.60 1:34.33 1:39.11 1:54.63 1:28.36 -
16 Ashire Rhodes FR-1 MidAmerica Nazarene 1:59.48 1:36.78 2:31.74 1:53.51 2:18.60 1:52.32 1:32.00 -
17 Brendan Bena SO-2 Drury 1:59.49 1:58.30 2:11.44 2:17.42 2:11.44 1:27.23 2:17.42 -
18 Jake Norris FR-1 NW Missouri 1:59.65 1:26.15 2:02.05 2:08.03 2:14.01 2:18.80 1:54.87 -
19 Ethan Haller SO-2 Missouri S&T 1:59.65 2:12.82 2:04.44 1:27.35 1:23.76 2:25.98 2:22.39 -
20 Mookie Rolle FR-1 Highland CC 1:59.70 2:35.61 1:59.70 2:22.45 1:40.55 2:15.27 1:28.58 -
21 Brandon Colner SO-2 Missouri Western 2:00.39 1:30.30 2:14.84 2:19.66 2:18.45 2:30.49 2:23.27 -
22 Kareem Osseni SO-2 Coffeyville CC 2:00.47 1:54.45 2:26.98 1:33.97 2:34.21 1:41.20 1:38.79 -
23 William Crutcher JR-3 Missouri S&T 2:00.80 2:22.55 1:24.56 1:45.10 2:12.88 2:05.64 1:26.98 -
24 Derek Dixon FR-1 Missouri Western 2:01.43 1:26.22 1:57.79 2:29.36 2:03.86 2:34.22 1:50.51 -
25 Duncan Clark JR-3 Missouri S&T 2:01.63 2:36.91 2:08.93 2:19.88 2:05.28 2:23.53 2:22.31 -
26 Joshua Goodloe SO-2 Park U. 2:01.65 2:21.12 1:31.24 2:21.12 1:44.62 1:49.49 2:21.12 -
27 Grant Dewitt FR-1 Evangel 2:01.70 2:19.96 2:37.00 2:38.21 2:15.09 2:23.61 2:26.04 -
28 Tyler Bender FR-1 Evangel 2:01.88 1:30.20 1:30.20 2:36.01 1:35.07 2:27.48 1:47.26 -
29 Austin Wilson FR-1 Southwest Baptist 2:02.13 2:32.67 2:04.58 1:53.58 1:25.49 2:19.23 1:35.27 -
30 Terrance Brown FR-1 Coffeyville CC 2:02.34 2:02.34 1:36.65 1:31.76 2:32.93 1:43.99 1:59.90 -
31 Daniel Frazee JR-3 Southwest Baptist 2:03.06 1:40.91 2:23.98 1:39.68 1:35.99 1:27.38 2:00.60 -
32 Arthur Chan SO-2 Missouri S&T 2:03.53 2:23.30 2:24.53 1:36.36 1:37.59 1:54.89 2:40.59 -
33 Cerow Aligab FR-1 Missouri S&T 2:03.75 2:26.03 2:29.74 2:19.84 1:42.72 2:40.88 2:02.52 -
34 Trey Walker SR-4 Southwest Baptist 2:04.36 2:23.02 2:04.36 1:45.71 2:04.36 2:26.75 2:40.43 -
35 Cade Southard FR-1 Pittsburg St. 2:05.37 1:45.31 1:31.52 1:59.11 2:40.48 1:57.85 2:05.37 -
36 Andrew Bender FR-1 Evangel 2:05.89 2:10.93 2:31.07 2:26.04 1:35.68 1:59.60 1:43.23 -
37 Derek Templeman SR-4 NW Missouri 2:05.89 2:42.40 1:43.23 2:04.64 1:28.13 2:07.15 2:38.63 -
38 Corey Timberlake FR-1 Central Missouri 2:05.95 1:42.02 2:43.74 2:22.33 1:45.80 2:05.95 1:57.14 -
39 Logan Cutler FR-1 Missouri Western 2:07.31 1:36.76 2:22.59 1:29.12 1:31.67 2:31.50 1:31.67 -
40 Peyton Bailey JR-3 Pittsburg St. 2:08.71 2:02.28 2:46.04 2:34.46 2:13.86 2:39.60 2:37.03 -
41 Jack Lindgren FR-1 Park U. 2:08.91 2:08.91 1:47.00 1:56.02 1:36.69 1:47.00 2:45.01 -
42 Juan Gomez SO-2 Pittsburg St. 2:09.99 1:37.50 1:33.60 1:59.59 2:45.09 2:11.29 2:09.99 -
43 Kyle Mrotek SR-4 Missouri S&T 2:10.37 1:50.82 1:37.78 2:40.36 2:35.14 2:27.32 2:12.98 -
44 Patrick Dearman SO-2 Pittsburg St. 2:14.84 2:18.89 2:01.36 2:17.54 1:35.74 2:45.86 2:05.41 -
45 Drew Williams JR-3 Drury 2:16.62 2:42.58 2:11.16 1:37.00 2:12.53 2:48.05 2:04.33 -
46 Keaton Garrett FR-1 Drury 2:17.81 1:48.87 1:43.36 2:41.24 1:50.25 2:34.35 2:15.06 -
47 D'Andre Hill SO-2 Drury 2:20.11 2:29.92 2:15.91 2:15.91 2:07.50 2:21.52 2:15.91 -
  Riley Gorham FR-1 Missouri Western DNF DNF DNF DNF DNF DNF DNF -
Men's 800 Meters Section 1
PL NAME YEAR TEAM TIME SC
25 Duncan Clark JR-3 Missouri S&T 2:01.63 -
26 Joshua Goodloe SO-2 Park U. 2:01.65 -
32 Arthur Chan SO-2 Missouri S&T 2:03.53 -
33 Cerow Aligab FR-1 Missouri S&T 2:03.75 -
38 Corey Timberlake FR-1 Central Missouri 2:05.95 -
39 Logan Cutler FR-1 Missouri Western 2:07.31 -
42 Juan Gomez SO-2 Pittsburg St. 2:09.99 -
43 Kyle Mrotek SR-4 Missouri S&T 2:10.37 -
45 Drew Williams JR-3 Drury 2:16.62 -
46 Keaton Garrett FR-1 Drury 2:17.81 -
47 D'Andre Hill SO-2 Drury 2:20.11 -
Men's 800 Meters Section 2
PL NAME YEAR TEAM TIME SC
7 Jonathan Dasal SO-2 Evangel 1:55.92 2
8 Matt Moler FR-1 Drury 1:56.00 1
16 Ashire Rhodes FR-1 MidAmerica Nazarene 1:59.48 -
19 Ethan Haller SO-2 Missouri S&T 1:59.65 -
22 Kareem Osseni SO-2 Coffeyville CC 2:00.47 -
23 William Crutcher JR-3 Missouri S&T 2:00.80 -
24 Derek Dixon FR-1 Missouri Western 2:01.43 -
27 Grant Dewitt FR-1 Evangel 2:01.70 -
28 Tyler Bender FR-1 Evangel 2:01.88 -
29 Austin Wilson FR-1 Southwest Baptist 2:02.13 -
30 Terrance Brown FR-1 Coffeyville CC 2:02.34 -
31 Daniel Frazee JR-3 Southwest Baptist 2:03.06 -
35 Cade Southard FR-1 Pittsburg St. 2:05.37 -
36 Andrew Bender FR-1 Evangel 2:05.89 -
40 Peyton Bailey JR-3 Pittsburg St. 2:08.71 -
44 Patrick Dearman SO-2 Pittsburg St. 2:14.84 -
Men's 800 Meters Section 3
PL NAME YEAR TEAM TIME TIME TIME SC
9 Jacob Weber JR-3 Central Missouri 1:49.18 1:48.01 1:56.14 -
10 Nicholas Rotich SR-4 Park U. 2:01.14 2:29.10 1:56.48 -
11 Marshall Vaccaro SO-2 Missouri S&T 1:21.76 1:53.30 1:56.80 -
12 Derek Nugent SO-2 Central Missouri 1:33.10 2:10.81 1:57.84 -
17 Brendan Bena SO-2 Drury 1:23.65 2:29.37 1:59.49 -
20 Mookie Rolle FR-1 Highland CC 1:38.16 2:35.61 1:59.70 -
21 Brandon Colner SO-2 Missouri Western 2:05.21 2:16.04 2:00.39 -
34 Trey Walker SR-4 Southwest Baptist 2:40.43 1:32.03 2:04.36 -
41 Jack Lindgren FR-1 Park U. 1:44.42 2:35.99 2:08.91 -
  Riley Gorham FR-1 Missouri Western DNF DNF DNF -
Men's 800 Meters Section 4
PL NAME YEAR TEAM TIME TIME SC
1 Colin Webber SO-2 Pittsburg St. 1:52.51 1:28.89 10
2 Alex Staples JR-3 Missouri S&T 1:52.86 2:24.46 8
3 Abdelrahim Mahgoub FR-1 NW Missouri 1:54.02 1:19.82 6
4 Matt Christoffer SO-2 Southwest Baptist 1:55.34 1:35.74 5
5 Will O'Keefe SO-2 Southwest Baptist 1:55.79 2:07.37 4
6 Alex Goertz SR-4 MidAmerica Nazarene 1:55.88 2:20.22 3
13 Kingdon Hawes FR-1 NW Missouri 1:58.21 1:32.21 -
14 Colby Sutton JR-3 Southwest Baptist 1:58.85 1:46.97 -
15 Collin Welch SO-2 NW Missouri 1:59.40 2:28.06 -
18 Jake Norris FR-1 NW Missouri 1:59.65 1:28.55 -
37 Derek Templeman SR-4 NW Missouri 2:05.89 1:57.08 -